createdAt,value
2023-02-13T00:01:15.529Z,3
2023-02-13T00:02:59.145Z,2
2023-02-13T00:04:42.949Z,3
2023-02-13T00:06:26.566Z,1
2023-02-13T00:08:10.268Z,3
2023-02-13T00:09:54.021Z,2
2023-02-13T00:11:37.735Z,2
2023-02-13T00:13:21.446Z,2
2023-02-13T00:15:05.068Z,2
2023-02-13T00:16:48.850Z,2
2023-02-13T00:18:32.539Z,2
2023-02-13T00:20:16.233Z,10
2023-02-13T00:21:59.986Z,11
2023-02-13T00:23:43.698Z,11
2023-02-13T00:25:27.364Z,2
2023-02-13T00:27:11.091Z,2
2023-02-13T00:28:54.769Z,2
2023-02-13T00:30:38.461Z,2
2023-02-13T00:32:22.154Z,2
2023-02-13T00:34:05.702Z,3
2023-02-13T00:35:49.624Z,3
2023-02-13T00:37:33.304Z,2
2023-02-13T00:39:16.994Z,2
2023-02-13T00:41:00.608Z,2
2023-02-13T00:42:44.378Z,2
2023-02-13T00:44:28.087Z,12
2023-02-13T00:46:11.747Z,11
2023-02-13T00:47:55.311Z,11
2023-02-13T00:49:39.201Z,11
2023-02-13T00:51:24.264Z,3
2023-02-13T00:53:06.643Z,2
2023-02-13T00:54:50.150Z,2
2023-02-13T00:56:33.925Z,3
2023-02-13T00:58:17.696Z,2
2023-02-13T01:00:01.237Z,3
2023-02-13T01:01:45.126Z,3
2023-02-13T01:03:28.854Z,2
2023-02-13T01:05:12.340Z,3
2023-02-13T01:06:56.288Z,2
2023-02-13T01:10:23.453Z,2
2023-02-13T01:12:07.165Z,2
2023-02-13T01:13:50.994Z,3
2023-02-13T01:15:34.687Z,2
2023-02-13T01:17:18.461Z,2
2023-02-13T01:20:45.661Z,2
2023-02-13T01:22:29.523Z,2
2023-02-13T01:24:13.224Z,2
2023-02-13T01:25:56.956Z,2
2023-02-13T01:27:40.670Z,3
2023-02-13T01:29:24.288Z,3
2023-02-13T01:31:08.102Z,2
2023-02-13T01:32:51.742Z,2
2023-02-13T01:34:35.470Z,2
2023-02-13T01:36:19.124Z,2
2023-02-13T01:38:02.875Z,2
2023-02-13T01:39:46.571Z,2
2023-02-13T01:41:30.257Z,3
2023-02-13T01:43:13.998Z,3
2023-02-13T01:44:57.572Z,2
2023-02-13T01:46:41.363Z,1
2023-02-13T01:48:25.045Z,2
2023-02-13T01:50:08.777Z,2
2023-02-13T01:51:52.489Z,2
2023-02-13T01:53:36.195Z,3
2023-02-13T01:55:19.802Z,2
2023-02-13T01:57:03.653Z,2
2023-02-13T01:58:47.119Z,2
2023-02-13T02:00:30.813Z,2
2023-02-13T02:02:14.622Z,2
2023-02-13T02:03:58.399Z,3
2023-02-13T02:05:42.166Z,2
2023-02-13T02:07:25.772Z,2
2023-02-13T02:09:09.443Z,2
2023-02-13T02:10:53.212Z,2
2023-02-13T02:12:36.864Z,3
2023-02-13T02:14:20.529Z,3
2023-02-13T02:16:04.216Z,2
2023-02-13T02:17:47.981Z,2
2023-02-13T02:19:31.560Z,2
2023-02-13T02:21:15.364Z,2
2023-02-13T02:22:59.120Z,2
2023-02-13T02:24:42.739Z,2
2023-02-13T02:26:26.367Z,2
2023-02-13T02:28:10.067Z,2
2023-02-13T02:29:53.790Z,3
2023-02-13T02:31:37.597Z,2
2023-02-13T02:33:21.716Z,3
2023-02-13T02:35:04.903Z,2
2023-02-13T02:36:48.635Z,3
2023-02-13T02:38:32.310Z,1
2023-02-13T02:40:15.988Z,2
2023-02-13T02:41:59.840Z,2
2023-02-13T02:43:43.409Z,3
2023-02-13T02:45:27.159Z,2
2023-02-13T02:47:10.791Z,3
2023-02-13T02:48:54.541Z,3
2023-02-13T02:50:38.267Z,2
2023-02-13T02:52:21.912Z,2
2023-02-13T02:54:05.606Z,2
2023-02-13T02:55:49.342Z,2
2023-02-13T02:57:33.000Z,2
2023-02-13T02:59:16.722Z,3
2023-02-13T03:01:00.738Z,2
2023-02-13T03:02:44.155Z,2
2023-02-13T03:04:27.818Z,2
2023-02-13T03:06:11.590Z,3
2023-02-13T03:07:55.337Z,2
2023-02-13T03:09:38.921Z,3
2023-02-13T03:11:22.671Z,3
2023-02-13T03:13:06.394Z,2
2023-02-13T03:14:50.035Z,3
2023-02-13T03:16:33.741Z,2
2023-02-13T03:18:17.426Z,2
2023-02-13T03:20:01.123Z,2
2023-02-13T03:21:44.857Z,2
2023-02-13T03:23:28.582Z,3
2023-02-13T03:25:12.235Z,2
2023-02-13T03:26:55.968Z,2
2023-02-13T03:28:40.471Z,2
2023-02-13T03:30:23.508Z,3
2023-02-13T03:32:07.046Z,2
2023-02-13T03:33:50.747Z,2
2023-02-13T03:35:34.447Z,3
2023-02-13T03:37:18.166Z,2
2023-02-13T03:39:01.875Z,3
2023-02-13T03:40:45.646Z,3
2023-02-13T03:42:29.262Z,3
2023-02-13T03:44:12.958Z,2
2023-02-13T03:45:56.663Z,2
2023-02-13T03:47:40.368Z,2
2023-02-13T03:49:24.166Z,3
2023-02-13T03:51:07.775Z,2
2023-02-13T03:52:51.501Z,2
2023-02-13T03:54:35.180Z,2
2023-02-13T03:56:18.907Z,3
2023-02-13T03:58:02.593Z,3
2023-02-13T03:59:46.318Z,3
2023-02-13T04:01:30.115Z,2
2023-02-13T04:03:13.695Z,2
2023-02-13T04:04:57.438Z,3
2023-02-13T04:06:41.104Z,2
2023-02-13T04:08:24.859Z,2
2023-02-13T04:10:08.563Z,3
2023-02-13T04:11:52.275Z,3
2023-02-13T04:13:35.982Z,3
2023-02-13T04:15:19.665Z,3
2023-02-13T04:17:03.437Z,2
2023-02-13T04:18:47.025Z,3
2023-02-13T04:20:30.810Z,3
2023-02-13T04:22:14.472Z,3
2023-02-13T04:23:58.131Z,3
2023-02-13T04:25:41.834Z,2
2023-02-13T04:27:25.555Z,3
2023-02-13T04:29:09.240Z,2
2023-02-13T04:30:52.951Z,2
2023-02-13T04:32:36.712Z,1
2023-02-13T04:34:20.347Z,3
2023-02-13T04:36:04.052Z,2
2023-02-13T04:37:47.805Z,2
2023-02-13T04:39:31.465Z,2
2023-02-13T04:41:15.312Z,2
2023-02-13T04:42:58.864Z,3
2023-02-13T04:44:42.551Z,2
2023-02-13T04:46:26.291Z,2
2023-02-13T04:48:09.983Z,2
2023-02-13T04:49:53.662Z,3
2023-02-13T04:51:37.378Z,3
2023-02-13T04:53:21.385Z,3
2023-02-13T04:55:04.794Z,3
2023-02-13T04:56:48.476Z,3
2023-02-13T04:58:32.189Z,2
2023-02-13T05:00:15.888Z,2
2023-02-13T05:01:59.584Z,2
2023-02-13T05:03:43.365Z,2
2023-02-13T05:05:26.994Z,3
2023-02-13T05:07:10.680Z,3
2023-02-13T05:08:54.393Z,3
2023-02-13T05:10:38.223Z,2
2023-02-13T05:12:21.881Z,2
2023-02-13T05:14:05.501Z,3
2023-02-13T05:15:49.210Z,3
2023-02-13T05:17:32.905Z,2
2023-02-13T05:19:16.624Z,2
2023-02-13T05:21:00.476Z,2
2023-02-13T05:22:44.026Z,2
2023-02-13T05:24:27.725Z,3
2023-02-13T05:26:11.422Z,3
2023-02-13T05:27:55.123Z,3
2023-02-13T05:29:38.822Z,1
2023-02-13T05:31:22.694Z,2
2023-02-13T05:33:06.291Z,3
2023-02-13T05:34:49.944Z,2
2023-02-13T05:36:33.639Z,2
2023-02-13T05:38:17.332Z,3
2023-02-13T05:40:01.161Z,2
2023-02-13T05:41:44.740Z,2
2023-02-13T05:43:28.616Z,3
2023-02-13T05:45:12.136Z,3
2023-02-13T05:46:55.959Z,2
2023-02-13T05:48:39.572Z,3
2023-02-13T05:50:23.247Z,3
2023-02-13T05:52:07.102Z,3
2023-02-13T05:53:50.667Z,3
2023-02-13T05:55:34.350Z,3
2023-02-13T05:57:18.061Z,2
2023-02-13T05:59:01.862Z,3
2023-02-13T06:00:45.499Z,2
2023-02-13T06:02:29.213Z,3
2023-02-13T06:04:12.899Z,3
2023-02-13T06:05:56.609Z,3
2023-02-13T06:07:40.328Z,4
2023-02-13T06:09:24.004Z,3
2023-02-13T06:11:07.806Z,4
2023-02-13T06:12:51.433Z,6
2023-02-13T06:14:35.183Z,7
2023-02-13T06:16:18.785Z,8
2023-02-13T06:18:02.483Z,10
2023-02-13T06:19:46.291Z,12
2023-02-13T06:21:29.958Z,15
2023-02-13T06:23:13.590Z,18
2023-02-13T06:24:57.784Z,22
2023-02-13T06:26:41.004Z,28
2023-02-13T06:28:24.805Z,32
2023-02-13T06:30:08.464Z,39
2023-02-13T06:31:52.153Z,45
2023-02-13T06:33:35.845Z,52
2023-02-13T06:35:19.499Z,60
2023-02-13T06:37:03.198Z,68
2023-02-13T06:38:47.088Z,76
2023-02-13T06:40:30.697Z,88
2023-02-13T06:42:14.470Z,98
2023-02-13T06:43:58.213Z,110
2023-02-13T06:45:41.863Z,123
2023-02-13T06:47:25.482Z,137
2023-02-13T06:49:09.155Z,152
2023-02-13T06:50:52.896Z,170
2023-02-13T06:52:36.650Z,184
2023-02-13T06:54:20.348Z,200
2023-02-13T06:56:04.015Z,219
2023-02-13T06:57:47.621Z,239
2023-02-13T06:59:31.418Z,264
2023-02-13T07:01:15.196Z,283
2023-02-13T07:02:58.855Z,303
2023-02-13T07:04:42.618Z,321
2023-02-13T07:06:26.345Z,332
2023-02-13T07:08:10.067Z,349
2023-02-13T07:09:53.661Z,363
2023-02-13T07:11:37.379Z,386
2023-02-13T07:13:21.005Z,404
2023-02-13T07:15:04.759Z,422
2023-02-13T07:16:48.511Z,453
2023-02-13T07:18:32.178Z,481
2023-02-13T07:20:15.867Z,504
2023-02-13T07:21:59.491Z,523
2023-02-13T07:23:43.337Z,547
2023-02-13T07:25:27.031Z,569
2023-02-13T07:27:10.689Z,598
2023-02-13T07:28:54.267Z,633
2023-02-13T07:30:38.160Z,652
2023-02-13T07:32:21.801Z,680
2023-02-13T07:34:05.537Z,720
2023-02-13T07:35:49.106Z,738
2023-02-13T07:37:32.917Z,738
2023-02-13T07:39:16.480Z,739
2023-02-13T07:41:00.358Z,739
2023-02-13T07:42:43.897Z,739
2023-02-13T07:44:27.731Z,736
2023-02-13T07:46:11.418Z,739
2023-02-13T07:47:55.055Z,740
2023-02-13T07:49:38.819Z,739
2023-02-13T07:51:22.537Z,738
2023-02-13T07:53:06.108Z,739
2023-02-13T07:54:49.930Z,739
2023-02-13T07:56:33.609Z,738
2023-02-13T07:58:17.326Z,738
2023-02-13T08:00:01.043Z,739
2023-02-13T08:01:44.692Z,740
2023-02-13T08:03:28.435Z,738
2023-02-13T08:05:12.128Z,739
2023-02-13T08:06:55.859Z,739
2023-02-13T08:08:39.613Z,739
2023-02-13T08:10:23.256Z,739
2023-02-13T08:12:06.956Z,735
2023-02-13T08:13:50.795Z,738
2023-02-13T08:15:34.255Z,739
2023-02-13T08:17:17.994Z,740
2023-02-13T08:19:01.792Z,738
2023-02-13T08:20:45.522Z,737
2023-02-13T08:22:29.046Z,739
2023-02-13T08:24:12.967Z,740
2023-02-13T08:25:56.479Z,739
2023-02-13T08:27:40.311Z,739
2023-02-13T08:29:23.889Z,738
2023-02-13T08:31:07.627Z,739
2023-02-13T08:32:51.333Z,738
2023-02-13T08:34:34.985Z,738
2023-02-13T08:36:18.718Z,740
2023-02-13T08:38:02.606Z,739
2023-02-13T08:39:46.240Z,740
2023-02-13T08:41:29.920Z,739
2023-02-13T08:43:13.616Z,738
2023-02-13T08:44:57.268Z,739
2023-02-13T08:46:41.088Z,739
2023-02-13T08:48:24.597Z,738
2023-02-13T08:50:08.395Z,738
2023-02-13T08:51:52.127Z,739
2023-02-13T08:53:35.685Z,739
2023-02-13T08:55:19.528Z,739
2023-02-13T08:57:03.101Z,739
2023-02-13T08:58:47.735Z,739
2023-02-13T09:00:30.624Z,740
2023-02-13T09:02:14.198Z,737
2023-02-13T09:03:58.099Z,739
2023-02-13T09:05:41.762Z,739
2023-02-13T09:07:25.299Z,739
2023-02-13T09:09:09.148Z,738
2023-02-13T09:10:52.769Z,740
2023-02-13T09:12:36.407Z,740
2023-02-13T09:14:20.118Z,739
2023-02-13T09:16:05.767Z,731
2023-02-13T09:17:47.523Z,739
2023-02-13T09:19:31.226Z,739
2023-02-13T09:21:14.931Z,739
2023-02-13T09:22:58.625Z,739
2023-02-13T09:24:42.331Z,739
2023-02-13T09:26:26.113Z,739
2023-02-13T09:28:09.898Z,739
2023-02-13T09:29:53.595Z,739
2023-02-13T09:31:37.305Z,739
2023-02-13T09:33:20.920Z,738
2023-02-13T09:35:04.551Z,739
2023-02-13T09:36:48.257Z,740
2023-02-13T09:38:31.965Z,739
2023-02-13T09:40:15.659Z,739
2023-02-13T09:41:59.371Z,739
2023-02-13T09:43:43.660Z,739
2023-02-13T09:45:26.782Z,738
2023-02-13T09:47:10.582Z,738
2023-02-13T09:48:54.177Z,739
2023-02-13T09:50:37.884Z,740
2023-02-13T09:52:21.590Z,739
2023-02-13T09:54:05.284Z,738
2023-02-13T09:55:48.989Z,738
2023-02-13T09:57:32.689Z,739
2023-02-13T09:59:16.392Z,740
2023-02-13T10:01:00.097Z,739
2023-02-13T10:02:43.795Z,738
2023-02-13T10:04:27.492Z,739
2023-02-13T10:06:11.200Z,731
2023-02-13T10:07:54.954Z,739
2023-02-13T10:09:38.675Z,739
2023-02-13T10:11:22.392Z,739
2023-02-13T10:13:06.018Z,739
2023-02-13T10:14:49.718Z,740
2023-02-13T10:16:33.429Z,738
2023-02-13T10:20:00.854Z,730
2023-02-13T10:21:44.516Z,739
2023-02-13T10:23:28.230Z,738
2023-02-13T10:25:11.919Z,739
2023-02-13T10:26:55.625Z,739
2023-02-13T10:28:39.341Z,739
2023-02-13T10:30:23.030Z,739
2023-02-13T10:32:06.731Z,739
2023-02-13T10:33:50.447Z,730
2023-02-13T10:35:34.138Z,739
2023-02-13T10:37:17.840Z,740
2023-02-13T10:39:01.542Z,738
2023-02-13T10:40:45.251Z,739
2023-02-13T10:42:28.985Z,740
2023-02-13T10:44:12.658Z,740
2023-02-13T10:45:56.396Z,739
2023-02-13T10:47:40.244Z,737
2023-02-13T10:49:23.756Z,739
2023-02-13T10:51:07.470Z,740
2023-02-13T10:52:51.161Z,740
2023-02-13T10:54:34.964Z,739
2023-02-13T10:56:18.717Z,739
2023-02-13T10:58:02.485Z,739
2023-02-13T10:59:46.093Z,740
2023-02-13T11:01:29.682Z,738
2023-02-13T11:03:13.376Z,739
2023-02-13T11:04:57.094Z,739
2023-02-13T11:06:40.775Z,740
2023-02-13T11:08:24.485Z,739
2023-02-13T11:10:08.203Z,738
2023-02-13T11:11:51.910Z,740
2023-02-13T11:13:36.641Z,739
2023-02-13T11:15:19.293Z,739
2023-02-13T11:17:03.008Z,739
2023-02-13T11:18:46.693Z,740
2023-02-13T11:20:30.397Z,740
2023-02-13T11:22:14.097Z,739
2023-02-13T11:23:57.805Z,738
2023-02-13T11:25:41.494Z,739
2023-02-13T11:27:25.199Z,740
2023-02-13T11:29:08.912Z,740
2023-02-13T11:30:52.606Z,739
2023-02-13T11:32:36.316Z,738
2023-02-13T11:34:20.004Z,740
2023-02-13T11:36:03.707Z,739
2023-02-13T11:37:47.417Z,739
2023-02-13T11:39:31.129Z,739
2023-02-13T11:41:14.836Z,740
2023-02-13T11:42:58.583Z,740
2023-02-13T11:44:42.259Z,739
2023-02-13T11:46:26.081Z,739
2023-02-13T11:48:09.621Z,740
2023-02-13T11:49:53.384Z,740
2023-02-13T11:51:37.109Z,738
2023-02-13T11:53:20.757Z,740
2023-02-13T11:55:04.440Z,740
2023-02-13T11:56:48.134Z,740
2023-02-13T11:58:31.851Z,740
2023-02-13T12:00:15.551Z,738
2023-02-13T12:01:59.242Z,739
2023-02-13T12:03:42.969Z,740
2023-02-13T12:05:26.653Z,736
2023-02-13T12:07:10.355Z,739
2023-02-13T12:08:54.208Z,739
2023-02-13T12:10:37.856Z,740
2023-02-13T12:12:21.462Z,740
2023-02-13T12:14:05.296Z,739
2023-02-13T12:15:48.868Z,739
2023-02-13T12:17:32.585Z,740
2023-02-13T12:19:16.509Z,731
2023-02-13T12:21:00.174Z,739
2023-02-13T12:22:43.830Z,739
2023-02-13T12:24:27.539Z,739
2023-02-13T12:26:11.139Z,741
2023-02-13T12:27:54.789Z,739
2023-02-13T12:29:38.649Z,739
2023-02-13T12:31:22.320Z,740
2023-02-13T12:33:05.894Z,739
2023-02-13T12:34:49.793Z,739
2023-02-13T12:36:33.509Z,739
2023-02-13T12:38:17.196Z,739
2023-02-13T12:40:00.697Z,740
2023-02-13T12:41:44.542Z,740
2023-02-13T12:43:28.282Z,739
2023-02-13T12:45:11.967Z,740
2023-02-13T12:46:55.695Z,740
2023-02-13T12:48:39.336Z,740
2023-02-13T12:50:23.100Z,738
2023-02-13T12:52:06.783Z,740
2023-02-13T12:53:50.694Z,740
2023-02-13T12:55:34.202Z,740
2023-02-13T12:57:17.864Z,739
2023-02-13T12:59:01.620Z,740
2023-02-13T13:00:45.269Z,740
2023-02-13T13:02:28.999Z,740
2023-02-13T13:04:12.688Z,740
2023-02-13T13:05:56.423Z,739
2023-02-13T13:07:40.176Z,740
2023-02-13T13:09:23.874Z,739
2023-02-13T13:11:07.514Z,740
2023-02-13T13:12:51.213Z,740
2023-02-13T13:14:34.745Z,740
2023-02-13T13:16:18.553Z,739
2023-02-13T13:18:02.284Z,740
2023-02-13T13:19:46.049Z,739
2023-02-13T13:21:29.752Z,739
2023-02-13T13:23:13.441Z,740
2023-02-13T13:24:57.157Z,740
2023-02-13T13:26:40.806Z,740
2023-02-13T13:28:24.578Z,740
2023-02-13T13:30:08.267Z,741
2023-02-13T13:31:51.954Z,740
2023-02-13T13:33:35.640Z,740
2023-02-13T13:35:19.348Z,740
2023-02-13T13:37:03.084Z,731
2023-02-13T13:38:46.762Z,740
2023-02-13T13:40:30.464Z,739
2023-02-13T13:42:13.980Z,740
2023-02-13T13:43:57.867Z,741
2023-02-13T13:45:41.576Z,741
2023-02-13T13:47:25.222Z,740
2023-02-13T13:49:08.796Z,740
2023-02-13T13:50:52.674Z,740
2023-02-13T13:52:36.353Z,741
2023-02-13T13:54:19.904Z,739
2023-02-13T13:56:03.729Z,740
2023-02-13T13:57:47.310Z,741
2023-02-13T13:59:31.185Z,739
2023-02-13T14:01:14.866Z,740
2023-02-13T14:02:58.508Z,739
2023-02-13T14:04:42.120Z,742
2023-02-13T14:06:25.964Z,740
2023-02-13T14:08:09.607Z,740
2023-02-13T14:09:53.392Z,740
2023-02-13T14:11:37.128Z,739
2023-02-13T14:13:20.826Z,739
2023-02-13T14:15:04.467Z,740
2023-02-13T14:16:48.149Z,739
2023-02-13T14:18:31.798Z,740
2023-02-13T14:20:15.498Z,740
2023-02-13T14:21:59.310Z,741
2023-02-13T14:23:43.002Z,740
2023-02-13T14:25:26.577Z,740
2023-02-13T14:27:10.344Z,731
2023-02-13T14:28:54.308Z,741
2023-02-13T14:30:37.793Z,739
2023-02-13T14:32:21.445Z,740
2023-02-13T14:34:05.063Z,741
2023-02-13T14:35:48.804Z,741
2023-02-13T14:37:32.468Z,740
2023-02-13T14:39:16.151Z,740
2023-02-13T14:41:00.132Z,740
2023-02-13T14:42:43.651Z,741
2023-02-13T14:44:27.328Z,741
2023-02-13T14:46:11.117Z,740
2023-02-13T14:47:54.728Z,740
2023-02-13T14:49:38.384Z,741
2023-02-13T14:51:22.218Z,741
2023-02-13T14:53:05.892Z,740
2023-02-13T14:54:49.625Z,740
2023-02-13T14:56:33.315Z,741
2023-02-13T14:58:16.908Z,741
2023-02-13T15:00:00.691Z,740
2023-02-13T15:01:44.460Z,740
2023-02-13T15:03:28.212Z,740
2023-02-13T15:05:11.787Z,741
2023-02-13T15:06:55.535Z,741
2023-02-13T15:08:39.212Z,741
2023-02-13T15:10:22.865Z,741
2023-02-13T15:12:06.626Z,741
2023-02-13T15:13:51.069Z,740
2023-02-13T15:15:34.025Z,740
2023-02-13T15:17:17.680Z,740
2023-02-13T15:19:01.367Z,741
2023-02-13T15:20:45.024Z,741
2023-02-13T15:22:28.817Z,741
2023-02-13T15:24:12.486Z,741
2023-02-13T15:25:56.204Z,742
2023-02-13T15:27:39.964Z,742
2023-02-13T15:29:23.543Z,740
2023-02-13T15:31:07.317Z,731
2023-02-13T15:32:51.018Z,741
2023-02-13T15:34:34.673Z,742
2023-02-13T15:36:18.362Z,740
2023-02-13T15:38:02.073Z,741
2023-02-13T15:39:45.755Z,742
2023-02-13T15:41:29.466Z,741
2023-02-13T15:43:13.258Z,740
2023-02-13T15:44:56.959Z,732
2023-02-13T15:46:40.719Z,741
2023-02-13T15:48:24.278Z,741
2023-02-13T15:50:08.104Z,740
2023-02-13T15:51:51.782Z,740
2023-02-13T15:53:35.368Z,741
2023-02-13T15:55:19.212Z,741
2023-02-13T15:57:02.946Z,740
2023-02-13T15:58:46.656Z,730
2023-02-13T16:00:30.334Z,590
2023-02-13T16:02:13.935Z,550
2023-02-13T16:03:57.710Z,528
2023-02-13T16:05:41.275Z,503
2023-02-13T16:07:25.068Z,478
2023-02-13T16:09:08.804Z,458
2023-02-13T16:10:52.565Z,438
2023-02-13T16:12:36.227Z,418
2023-02-13T16:14:19.855Z,399
2023-02-13T16:16:03.565Z,378
2023-02-13T16:19:30.901Z,335
2023-02-13T16:21:14.605Z,314
2023-02-13T16:22:58.336Z,292
2023-02-13T16:24:42.123Z,273
2023-02-13T16:26:25.769Z,253
2023-02-13T16:28:09.508Z,229
2023-02-13T16:29:53.195Z,206
2023-02-13T16:31:36.913Z,188
2023-02-13T16:35:04.324Z,154
2023-02-13T16:36:48.047Z,138
2023-02-13T16:38:31.667Z,120
2023-02-13T16:40:15.385Z,107
2023-02-13T16:41:59.172Z,97
2023-02-13T16:43:42.812Z,86
2023-02-13T16:45:26.468Z,76
2023-02-13T16:47:10.272Z,66
2023-02-13T16:48:53.886Z,58
2023-02-13T16:50:37.618Z,49
2023-02-13T16:52:21.368Z,43
2023-02-13T16:54:04.966Z,36
2023-02-13T16:55:48.658Z,31
2023-02-13T16:59:16.068Z,23
2023-02-13T17:00:59.774Z,20
2023-02-13T17:02:43.676Z,16
2023-02-13T17:04:27.166Z,14
2023-02-13T17:06:10.875Z,11
2023-02-13T17:07:54.669Z,9
2023-02-13T17:09:38.286Z,7
2023-02-13T17:11:21.990Z,6
2023-02-13T17:13:05.773Z,4
2023-02-13T17:14:49.400Z,3
2023-02-13T17:16:33.170Z,3
2023-02-13T17:18:16.809Z,3
2023-02-13T17:20:00.557Z,3
2023-02-13T17:21:44.225Z,3
2023-02-13T17:23:27.942Z,3
2023-02-13T17:25:11.659Z,3
2023-02-13T17:26:55.370Z,2
2023-02-13T17:28:39.041Z,2
2023-02-13T17:30:22.715Z,2
2023-02-13T17:32:06.425Z,2
2023-02-13T17:33:50.180Z,2
2023-02-13T17:35:33.842Z,2
2023-02-13T17:37:17.518Z,2
2023-02-13T17:39:01.314Z,11
2023-02-13T17:40:44.950Z,11
2023-02-13T17:42:28.633Z,11
2023-02-13T17:44:12.352Z,12
2023-02-13T17:45:56.161Z,11
2023-02-13T17:47:39.722Z,11
2023-02-13T17:49:23.453Z,12
2023-02-13T17:51:07.134Z,11
2023-02-13T17:52:50.902Z,11
2023-02-13T17:54:34.537Z,11
2023-02-13T17:56:18.240Z,12
2023-02-13T17:58:01.984Z,12
2023-02-13T17:59:45.660Z,11
2023-02-13T18:01:29.354Z,11
2023-02-13T18:03:13.065Z,11
2023-02-13T18:04:56.753Z,11
2023-02-13T18:06:40.454Z,12
2023-02-13T18:08:24.195Z,12
2023-02-13T18:10:07.855Z,12
2023-02-13T18:11:51.619Z,11
2023-02-13T18:13:35.709Z,12
2023-02-13T18:15:18.970Z,11
2023-02-13T18:17:02.673Z,3
2023-02-13T18:18:46.408Z,3
2023-02-13T18:20:30.084Z,2
2023-02-13T18:22:13.813Z,2
2023-02-13T18:23:57.474Z,1
2023-02-13T18:25:41.295Z,2
2023-02-13T18:27:24.890Z,2
2023-02-13T18:29:08.674Z,3
2023-02-13T18:30:52.397Z,2
2023-02-13T18:32:36.006Z,2
2023-02-13T18:34:19.709Z,3
2023-02-13T18:36:03.466Z,2
2023-02-13T18:37:47.152Z,2
2023-02-13T18:39:30.833Z,3
2023-02-13T18:41:14.508Z,3
2023-02-13T18:42:58.295Z,2
2023-02-13T18:44:42.010Z,2
2023-02-13T18:46:25.614Z,2
2023-02-13T18:48:09.328Z,2
2023-02-13T18:49:53.016Z,2
2023-02-13T18:51:36.734Z,3
2023-02-13T18:55:04.227Z,2
2023-02-13T18:56:47.821Z,2
2023-02-13T18:58:31.554Z,2
2023-02-13T19:00:15.263Z,3
2023-02-13T19:01:58.930Z,2
2023-02-13T19:03:42.704Z,3
2023-02-13T19:05:26.347Z,2
2023-02-13T19:07:10.037Z,2
2023-02-13T19:08:53.822Z,2
2023-02-13T19:10:37.442Z,3
2023-02-13T19:12:21.148Z,2
2023-02-13T19:14:04.954Z,3
2023-02-13T19:15:48.553Z,2
2023-02-13T19:17:32.309Z,2
2023-02-13T19:19:16.021Z,1
2023-02-13T19:20:59.779Z,2
2023-02-13T19:22:43.396Z,2
2023-02-13T19:24:27.277Z,2
2023-02-13T19:26:10.785Z,3
2023-02-13T19:27:54.526Z,3
2023-02-13T19:29:38.175Z,2
2023-02-13T19:31:21.911Z,2
2023-02-13T19:33:05.703Z,2
2023-02-13T19:34:49.390Z,3
2023-02-13T19:36:32.979Z,2
2023-02-13T19:38:16.761Z,2
2023-02-13T19:40:00.403Z,2
2023-02-13T19:41:44.215Z,3
2023-02-13T19:43:27.802Z,3
2023-02-13T19:45:11.508Z,2
2023-02-13T19:46:55.239Z,2
2023-02-13T19:48:38.912Z,2
2023-02-13T19:50:22.623Z,2
2023-02-13T19:52:06.368Z,10
2023-02-13T19:53:50.034Z,12
2023-02-13T19:55:33.722Z,11
2023-02-13T19:57:17.428Z,12
2023-02-13T20:00:44.829Z,11
2023-02-13T20:02:28.545Z,11
2023-02-13T20:04:12.296Z,11
2023-02-13T20:05:55.969Z,11
2023-02-13T20:07:39.676Z,18
2023-02-13T20:09:23.360Z,18
2023-02-13T20:11:07.053Z,18
2023-02-13T20:12:50.831Z,17
2023-02-13T20:14:34.466Z,18
2023-02-13T20:16:18.164Z,2
2023-02-13T20:18:01.877Z,2
2023-02-13T20:19:45.566Z,2
2023-02-13T20:21:29.455Z,2
2023-02-13T20:23:13.150Z,2
2023-02-13T20:24:56.824Z,2
2023-02-13T20:26:40.587Z,2
2023-02-13T20:28:24.235Z,63
2023-02-13T20:30:07.886Z,59
2023-02-13T20:31:51.650Z,13
2023-02-13T20:33:35.287Z,13
2023-02-13T20:35:19.074Z,13
2023-02-13T20:37:02.744Z,13
2023-02-13T20:38:46.484Z,14
2023-02-13T20:40:30.194Z,13
2023-02-13T20:42:13.843Z,13
2023-02-13T20:43:57.652Z,13
2023-02-13T20:45:41.290Z,13
2023-02-13T20:47:24.933Z,13
2023-02-13T20:49:08.656Z,14
2023-02-13T20:50:52.365Z,14
2023-02-13T20:52:36.088Z,13
2023-02-13T20:54:19.812Z,13
2023-02-13T20:56:03.524Z,13
2023-02-13T20:57:47.148Z,13
2023-02-13T20:59:30.895Z,13
2023-02-13T21:01:14.608Z,14
2023-02-13T21:02:58.133Z,14
2023-02-13T21:04:41.986Z,14
2023-02-13T21:06:25.650Z,14
2023-02-13T21:08:09.251Z,13
2023-02-13T21:09:52.957Z,66
2023-02-13T21:11:36.657Z,56
2023-02-13T21:13:20.347Z,55
2023-02-13T21:15:04.046Z,54
2023-02-13T21:16:47.755Z,54
2023-02-13T21:18:31.456Z,53
2023-02-13T21:20:15.151Z,53
2023-02-13T21:21:58.859Z,53
2023-02-13T21:23:42.593Z,52
2023-02-13T21:25:26.260Z,52
2023-02-13T21:27:09.986Z,52
2023-02-13T21:28:54.032Z,11
2023-02-13T21:30:37.364Z,9
2023-02-13T21:32:21.081Z,2
2023-02-13T21:34:04.761Z,2
2023-02-13T21:35:48.470Z,3
2023-02-13T21:37:32.224Z,2
2023-02-13T21:39:15.886Z,2
2023-02-13T21:40:59.583Z,2
2023-02-13T21:42:43.290Z,3
2023-02-13T21:44:26.992Z,3
2023-02-13T21:46:10.699Z,2
2023-02-13T21:47:54.393Z,2
2023-02-13T21:49:38.121Z,3
2023-02-13T21:51:22.143Z,3
2023-02-13T21:53:05.502Z,2
2023-02-13T21:54:49.214Z,2
2023-02-13T21:56:32.916Z,2
2023-02-13T21:58:16.616Z,2
2023-02-13T22:00:00.323Z,3
2023-02-13T22:01:44.020Z,11
2023-02-13T22:03:27.750Z,12
2023-02-13T22:05:11.431Z,11
2023-02-13T22:06:55.125Z,11
2023-02-13T22:08:38.899Z,3
2023-02-13T22:10:22.532Z,3
2023-02-13T22:12:06.233Z,2
2023-02-13T22:13:53.653Z,2
2023-02-13T22:15:33.639Z,2
2023-02-13T22:17:17.344Z,3
2023-02-13T22:19:01.053Z,3
2023-02-13T22:20:44.736Z,2
2023-02-13T22:22:28.451Z,3
2023-02-13T22:24:12.151Z,3
2023-02-13T22:25:55.849Z,2
2023-02-13T22:27:39.746Z,2
2023-02-13T22:29:23.260Z,2
2023-02-13T22:31:06.956Z,3
2023-02-13T22:32:50.678Z,11
2023-02-13T22:34:34.360Z,11
2023-02-13T22:36:18.071Z,11
2023-02-13T22:38:01.785Z,3
2023-02-13T22:39:45.484Z,3
2023-02-13T22:41:29.182Z,3
2023-02-13T22:43:12.920Z,2
2023-02-13T22:44:56.573Z,3
2023-02-13T22:46:40.373Z,2
2023-02-13T22:48:24.032Z,3
2023-02-13T22:50:07.692Z,3
2023-02-13T22:51:51.428Z,3
2023-02-13T22:53:35.160Z,3
2023-02-13T22:55:18.795Z,3
2023-02-13T22:57:02.502Z,2
2023-02-13T22:58:46.207Z,11
2023-02-13T23:00:29.903Z,12
2023-02-13T23:02:13.599Z,11
2023-02-13T23:03:57.302Z,3
2023-02-13T23:05:41.019Z,3
2023-02-13T23:07:24.911Z,3
2023-02-13T23:09:08.422Z,2
2023-02-13T23:10:52.135Z,2
2023-02-13T23:12:35.849Z,2
2023-02-13T23:14:19.509Z,2
2023-02-13T23:16:03.220Z,3
2023-02-13T23:17:46.939Z,2
2023-02-13T23:19:30.616Z,2
2023-02-13T23:21:14.321Z,2
2023-02-13T23:22:58.047Z,2
2023-02-13T23:24:41.798Z,11
2023-02-13T23:26:25.432Z,11
2023-02-13T23:28:09.140Z,11
2023-02-13T23:29:52.847Z,3
2023-02-13T23:31:36.588Z,3
2023-02-13T23:33:21.706Z,3
2023-02-13T23:35:03.947Z,3
2023-02-13T23:36:47.655Z,2
2023-02-13T23:38:31.354Z,2
2023-02-13T23:40:15.056Z,3
2023-02-13T23:41:58.765Z,2
2023-02-13T23:43:42.531Z,3
2023-02-13T23:45:26.161Z,3
2023-02-13T23:47:09.856Z,2
2023-02-13T23:48:53.580Z,3
2023-02-13T23:50:37.264Z,3
2023-02-13T23:52:20.970Z,3
2023-02-13T23:54:04.663Z,2
2023-02-13T23:55:48.379Z,3
2023-02-13T23:57:32.075Z,3
2023-02-13T23:59:15.772Z,11
